Time;durP1;ratioP1;P1;durP2;ratioP2;P2;SDS_P1;SDS_P2;PMS_P1;PMS_P2;Temp;Humidity;BMP_temperature;BMP_pressure;BME280_temperature;BME280_humidity;BME280_pressure;Samples;Min_cycle;Max_cycle;Signal;HPM_P1;HPM_P2
2023/12/23 00:00:11;;;;;;;1999.90;999.90;;;4.90;99.90;;;;;;5040494;28;20565;-75
2023/12/23 00:02:39;;;;;;;1999.90;999.90;;;4.90;99.90;;;;;;5038837;28;20443;-75
2023/12/23 00:05:06;;;;;;;1999.90;999.90;;;5.00;99.90;;;;;;5044608;28;20418;-75
2023/12/23 00:07:33;;;;;;;1999.90;999.90;;;4.90;99.90;;;;;;5039994;28;20426;-74
2023/12/23 00:09:59;;;;;;;1999.90;999.90;;;4.90;99.90;;;;;;5038231;28;20431;-75
2023/12/23 00:12:26;;;;;;;1999.90;999.90;;;4.90;99.90;;;;;;5038967;28;20480;-74
2023/12/23 00:14:53;;;;;;;1999.90;999.90;;;5.00;99.90;;;;;;5040264;28;20817;-74
2023/12/23 00:17:20;;;;;;;1999.90;999.90;;;4.90;99.90;;;;;;5048908;28;20442;-74
2023/12/23 00:19:48;;;;;;;1999.90;999.90;;;5.00;99.90;;;;;;5049758;28;20461;-75
2023/12/23 00:22:14;;;;;;;1999.90;999.90;;;4.90;99.90;;;;;;5039715;28;20441;-75
2023/12/23 00:24:41;;;;;;;1999.90;999.90;;;4.90;99.90;;;;;;5036321;28;20897;-76
2023/12/23 00:27:08;;;;;;;1999.90;999.90;;;4.90;99.90;;;;;;5037562;28;20418;-75
2023/12/23 00:29:34;;;;;;;1999.90;999.90;;;4.90;99.90;;;;;;5038564;28;20459;-75
2023/12/23 00:32:01;;;;;;;1999.90;999.90;;;4.90;99.90;;;;;;5041310;28;20419;-75
2023/12/23 00:34:28;;;;;;;1999.90;999.90;;;5.40;99.90;;;;;;5041392;28;20419;-75
2023/12/23 00:36:55;;;;;;;1999.90;999.90;;;4.90;99.90;;;;;;5041062;28;20433;-75
2023/12/23 00:39:22;;;;;;;1999.90;999.90;;;4.80;99.90;;;;;;5039241;28;20439;-75
2023/12/23 00:41:49;;;;;;;1999.90;999.90;;;4.80;99.90;;;;;;5039564;28;20458;-75
2023/12/23 00:44:15;;;;;;;1999.90;999.90;;;4.80;99.90;;;;;;5043547;28;20751;-75
2023/12/23 00:46:42;;;;;;;1999.90;999.90;;;4.80;99.90;;;;;;5039997;28;20794;-76
2023/12/23 00:49:09;;;;;;;1999.90;999.90;;;4.70;99.90;;;;;;5039652;28;20426;-75
2023/12/23 00:51:36;;;;;;;1999.90;999.90;;;4.70;99.90;;;;;;5040199;28;20429;-75
2023/12/23 00:54:04;;;;;;;1999.90;999.90;;;4.60;99.90;;;;;;5039660;28;20813;-75
2023/12/23 00:56:30;;;;;;;1999.90;999.90;;;4.50;99.90;;;;;;5040482;28;20415;-71
2023/12/23 00:58:57;;;;;;;1999.90;999.90;;;4.50;99.90;;;;;;5036737;28;20974;-72
2023/12/23 01:01:24;;;;;;;1999.90;999.90;;;4.40;99.90;;;;;;5037026;28;20477;-74
2023/12/23 01:03:51;;;;;;;1999.90;999.90;;;4.20;99.90;;;;;;5036961;28;20425;-74
2023/12/23 01:06:18;;;;;;;1999.90;999.90;;;4.10;99.90;;;;;;5036048;28;20437;-74
2023/12/23 01:08:44;;;;;;;1999.90;999.90;;;4.00;99.90;;;;;;5037055;28;20472;-73
2023/12/23 01:11:12;;;;;;;1999.90;999.90;;;4.10;99.90;;;;;;5036863;28;20434;-76
2023/12/23 01:13:39;;;;;;;1999.90;999.90;;;3.90;99.90;;;;;;5038185;28;20415;-73
2023/12/23 01:16:06;;;;;;;1999.90;999.90;;;4.30;99.90;;;;;;5038151;28;20411;-74
2023/12/23 01:18:33;;;;;;;1999.90;999.90;;;3.90;99.90;;;;;;5038291;28;20908;-74
2023/12/23 01:20:59;;;;;;;1999.90;999.90;;;3.90;99.90;;;;;;5038650;28;20435;-73
2023/12/23 01:23:26;;;;;;;1999.90;999.90;;;4.50;99.90;;;;;;5038241;28;20415;-74
2023/12/23 01:25:53;;;;;;;1999.90;999.90;;;4.00;99.90;;;;;;5037282;28;20426;-75
2023/12/23 01:28:21;;;;;;;1999.90;999.90;;;4.10;99.90;;;;;;5035862;28;20411;-74
2023/12/23 01:30:48;;;;;;;1999.90;999.90;;;4.10;99.90;;;;;;5036871;28;20477;-74
2023/12/23 01:33:14;;;;;;;1999.90;999.90;;;4.10;99.90;;;;;;5036326;28;20419;-76
2023/12/23 01:35:41;;;;;;;1999.90;999.90;;;4.10;99.90;;;;;;5039395;28;20465;-76
2023/12/23 01:38:07;;;;;;;1999.90;999.90;;;4.10;99.90;;;;;;5036685;28;20917;-73
2023/12/23 01:40:35;;;;;;;1999.90;999.90;;;4.10;99.90;;;;;;5036844;28;20418;-75
2023/12/23 01:43:01;;;;;;;1999.90;999.90;;;4.10;99.90;;;;;;5036138;28;20419;-77
2023/12/23 01:45:29;;;;;;;1999.90;999.90;;;4.50;99.90;;;;;;5035530;28;20422;-76
2023/12/23 01:47:57;;;;;;;1999.90;999.90;;;4.10;99.90;;;;;;5036319;28;20481;-73
2023/12/23 01:50:25;;;;;;;1999.90;999.90;;;4.10;99.90;;;;;;5036845;28;20435;-74
2023/12/23 01:52:56;;;;;;;1999.90;999.90;;;4.60;99.90;;;;;;5037293;28;20963;-75
2023/12/23 01:55:26;;;;;;;1999.90;999.90;;;4.10;99.90;;;;;;5035136;28;20460;-71
2023/12/23 01:57:53;;;;;;;1999.90;999.90;;;4.20;99.90;;;;;;5035712;28;20898;-73
2023/12/23 02:00:21;;;;;;;1999.90;999.90;;;4.10;99.90;;;;;;5029284;28;20442;-74
2023/12/23 02:02:50;;;;;;;1999.90;999.90;;;4.10;99.90;;;;;;5034135;28;20475;-75
2023/12/23 02:05:17;;;;;;;1999.90;999.90;;;4.20;99.90;;;;;;5036477;28;20417;-76
2023/12/23 02:07:45;;;;;;;1999.90;999.90;;;4.30;99.90;;;;;;5036964;28;20423;-76
2023/12/23 02:10:13;;;;;;;1999.90;999.90;;;4.30;99.90;;;;;;5036216;28;20431;-73
2023/12/23 02:12:48;;;;;;;1999.90;999.90;;;4.30;99.90;;;;;;5036158;28;20430;-74
2023/12/23 02:15:16;;;;;;;1999.90;999.90;;;4.30;99.90;;;;;;5036226;28;20483;-75
2023/12/23 02:17:42;;;;;;;1999.90;999.90;;;4.30;99.90;;;;;;5032952;28;20415;-76
2023/12/23 02:20:11;;;;;;;1999.90;999.90;;;4.20;99.90;;;;;;5028903;28;20424;-74
2023/12/23 02:22:39;;;;;;;1999.90;999.90;;;4.30;99.90;;;;;;5027023;28;20928;-75
2023/12/23 02:25:07;;;;;;;1999.90;999.90;;;4.30;99.90;;;;;;5032757;28;20470;-75
2023/12/23 02:27:40;;;;;;;1999.90;999.90;;;4.30;99.90;;;;;;5032809;28;20477;-75
2023/12/23 02:30:11;;;;;;;1999.90;999.90;;;4.40;99.90;;;;;;5032708;28;20438;-74
2023/12/23 02:32:38;;;;;;;1999.90;999.90;;;4.40;99.90;;;;;;5032116;28;20770;-76
2023/12/23 02:35:06;;;;;;;1999.90;999.90;;;4.50;99.90;;;;;;5037373;28;20415;-74
2023/12/23 02:37:32;;;;;;;1999.90;999.90;;;4.40;99.90;;;;;;5036827;28;20489;-73
2023/12/23 02:40:00;;;;;;;1999.90;999.90;;;4.40;99.90;;;;;;5039536;28;20415;-72
2023/12/23 02:42:27;;;;;;;1999.90;999.90;;;4.40;99.90;;;;;;5036353;28;20426;-74
2023/12/23 02:44:53;;;;;;;1999.90;999.90;;;4.40;99.90;;;;;;5036049;28;20422;-75
2023/12/23 02:47:20;;;;;;;1999.90;999.90;;;4.40;99.90;;;;;;5034946;28;20759;-76
2023/12/23 02:49:46;;;;;;;1999.90;999.90;;;4.50;99.90;;;;;;5037488;28;20433;-75
2023/12/23 02:52:13;;;;;;;1999.90;999.90;;;4.70;99.90;;;;;;5036374;28;20423;-75
2023/12/23 02:54:40;;;;;;;1999.90;999.90;;;4.60;99.90;;;;;;5038365;28;20414;-75
2023/12/23 02:57:08;;;;;;;1999.90;999.90;;;4.70;99.90;;;;;;5037769;28;20505;-75
2023/12/23 02:59:34;;;;;;;1999.90;999.90;;;4.60;99.90;;;;;;5039185;28;20506;-76
2023/12/23 03:02:01;;;;;;;1999.90;999.90;;;4.70;99.90;;;;;;5038402;28;20457;-75
2023/12/23 03:04:28;;;;;;;1999.90;999.90;;;4.70;99.90;;;;;;5040072;28;20487;-75
2023/12/23 03:06:55;;;;;;;1999.90;999.90;;;4.70;99.90;;;;;;5040773;28;20477;-76
2023/12/23 03:09:21;;;;;;;1999.90;999.90;;;4.80;99.90;;;;;;5040088;28;20419;-76
2023/12/23 03:11:49;;;;;;;1999.90;999.90;;;5.00;99.90;;;;;;5037685;28;20448;-77
2023/12/23 03:14:17;;;;;;;1999.90;999.90;;;4.70;99.90;;;;;;5038171;28;20415;-76
2023/12/23 03:16:44;;;;;;;1999.90;999.90;;;4.70;99.90;;;;;;5038315;28;20414;-76
2023/12/23 03:19:11;;;;;;;1999.90;999.90;;;5.00;99.90;;;;;;5034215;28;20921;-74
2023/12/23 03:21:43;;;;;;;1999.90;999.90;;;4.80;99.90;;;;;;5036977;28;20477;-76
2023/12/23 03:24:09;;;;;;;1999.90;999.90;;;4.90;99.90;;;;;;5036833;28;20419;-76
2023/12/23 03:26:37;;;;;;;1999.90;999.90;;;4.90;99.90;;;;;;5037829;28;20479;-76
2023/12/23 03:29:04;;;;;;;1999.90;999.90;;;4.90;99.90;;;;;;5039768;28;20453;-72
2023/12/23 03:31:32;;;;;;;1999.90;999.90;;;4.80;99.90;;;;;;5037382;28;20458;-75
2023/12/23 03:34:00;;;;;;;1999.90;999.90;;;4.80;99.90;;;;;;5033206;28;20766;-73
2023/12/23 03:36:27;;;;;;;1999.90;999.90;;;4.90;99.90;;;;;;5034556;28;20419;-74
2023/12/23 03:38:55;;;;;;;1999.90;999.90;;;4.90;99.90;;;;;;5034375;28;20433;-76
2023/12/23 03:41:22;;;;;;;1999.90;999.90;;;4.90;99.90;;;;;;5033376;28;20789;-75
2023/12/23 03:43:48;;;;;;;1999.90;999.90;;;4.90;99.90;;;;;;5033599;28;20469;-74
2023/12/23 03:46:18;;;;;;;1999.90;999.90;;;5.00;99.90;;;;;;5035060;28;20427;-76
2023/12/23 03:48:47;;;;;;;1999.90;999.90;;;5.00;99.90;;;;;;5033762;28;20897;-73
2023/12/23 03:51:13;;;;;;;1999.90;999.90;;;5.10;99.90;;;;;;5033738;28;20427;-76
2023/12/23 03:53:40;;;;;;;1999.90;999.90;;;5.10;99.90;;;;;;5033872;28;20449;-76
2023/12/23 03:56:07;;;;;;;1999.90;999.90;;;5.10;99.90;;;;;;5034067;28;20426;-75
2023/12/23 03:58:34;;;;;;;1999.90;999.90;;;5.10;99.90;;;;;;5034249;28;20410;-75
2023/12/23 04:01:00;;;;;;;1999.90;999.90;;;5.10;99.90;;;;;;5033874;28;20430;-75
2023/12/23 04:03:27;;;;;;;1999.90;999.90;;;5.10;99.90;;;;;;5033107;28;20423;-76
2023/12/23 04:05:55;;;;;;;1999.90;999.90;;;5.10;99.90;;;;;;5035787;28;20885;-76
2023/12/23 04:08:21;;;;;;;1999.90;999.90;;;5.30;99.90;;;;;;5035974;28;20422;-75
2023/12/23 04:10:48;;;;;;;1999.90;999.90;;;5.20;99.90;;;;;;5034540;28;20434;-75
2023/12/23 04:13:16;;;;;;;1999.90;999.90;;;5.20;99.90;;;;;;5032633;28;20438;-75
2023/12/23 04:15:43;;;;;;;1999.90;999.90;;;5.30;99.90;;;;;;5034145;28;20790;-75
2023/12/23 04:18:10;;;;;;;1999.90;999.90;;;5.30;99.90;;;;;;5035463;28;20461;-76
2023/12/23 04:20:36;;;;;;;1999.90;999.90;;;5.30;99.90;;;;;;5034860;28;20488;-77
2023/12/23 04:23:04;;;;;;;1999.90;999.90;;;5.30;99.90;;;;;;5033958;28;20493;-75
2023/12/23 04:25:31;;;;;;;1999.90;999.90;;;5.20;99.90;;;;;;5032106;28;20798;-75
2023/12/23 04:27:58;;;;;;;1999.90;999.90;;;5.20;99.90;;;;;;5033410;28;20418;-75
2023/12/23 04:30:24;;;;;;;1999.90;999.90;;;5.20;99.90;;;;;;5033108;28;20815;-76
2023/12/23 04:32:51;;;;;;;1999.90;999.90;;;5.70;99.90;;;;;;5035505;28;20415;-77
2023/12/23 04:35:17;;;;;;;1999.90;999.90;;;5.20;99.90;;;;;;5034612;28;20958;-75
2023/12/23 04:37:44;;;;;;;1999.90;999.90;;;5.20;99.90;;;;;;5034311;28;20471;-76
2023/12/23 04:40:13;;;;;;;1999.90;999.90;;;5.20;99.90;;;;;;5033522;28;20800;-76
2023/12/23 04:42:39;;;;;;;1999.90;999.90;;;5.10;99.90;;;;;;5028881;28;20407;-74
2023/12/23 04:45:07;;;;;;;1999.90;999.90;;;5.20;99.90;;;;;;5034027;28;20825;-74
2023/12/23 04:47:34;;;;;;;1999.90;999.90;;;5.10;99.90;;;;;;5034537;28;20441;-75
2023/12/23 04:50:01;;;;;;;1999.90;999.90;;;5.10;99.90;;;;;;5034776;28;20450;-74
2023/12/23 04:52:27;;;;;;;1999.90;999.90;;;5.10;99.90;;;;;;5033009;28;21003;-76
2023/12/23 04:54:54;;;;;;;1999.90;999.90;;;5.10;99.90;;;;;;5033506;28;20490;-76
2023/12/23 04:57:22;;;;;;;1999.90;999.90;;;5.20;99.90;;;;;;5032547;28;20419;-73
2023/12/23 04:59:48;;;;;;;1999.90;999.90;;;5.10;99.90;;;;;;5032663;28;20435;-76
2023/12/23 05:02:15;;;;;;;1999.90;999.90;;;4.90;99.90;;;;;;5036045;28;20407;-73
2023/12/23 05:04:46;;;;;;;1999.90;999.90;;;4.90;99.90;;;;;;5033662;28;20502;-73
2023/12/23 05:07:12;;;;;;;1999.90;999.90;;;4.80;99.90;;;;;;5032327;28;20427;-77
2023/12/23 05:09:39;;;;;;;1999.90;999.90;;;4.80;99.90;;;;;;5026562;28;20469;-74
2023/12/23 05:12:06;;;;;;;1999.90;999.90;;;4.90;99.90;;;;;;5033243;28;20489;-75
2023/12/23 05:14:34;;;;;;;1999.90;999.90;;;4.80;99.90;;;;;;5032341;28;20513;-76
2023/12/23 05:17:01;;;;;;;1999.90;999.90;;;4.80;99.90;;;;;;5032633;28;20481;-75
2023/12/23 05:19:27;;;;;;;1999.90;999.90;;;5.10;99.90;;;;;;5032683;28;20414;-75
2023/12/23 05:21:54;;;;;;;1999.90;999.90;;;4.80;99.90;;;;;;5033831;28;20415;-73
2023/12/23 05:24:20;;;;;;;1999.90;999.90;;;4.70;99.90;;;;;;5033315;28;20434;-75
2023/12/23 05:26:47;;;;;;;1999.90;999.90;;;4.70;99.90;;;;;;5034085;28;20415;-75
2023/12/23 05:29:14;;;;;;;1999.90;999.90;;;4.60;99.90;;;;;;5033762;28;20422;-74
2023/12/23 05:31:42;;;;;;;1999.90;999.90;;;4.50;99.90;;;;;;5033858;28;20492;-75
2023/12/23 05:34:09;;;;;;;1999.90;999.90;;;4.50;99.90;;;;;;5033266;28;20414;-76
2023/12/23 05:36:35;;;;;;;1999.90;999.90;;;4.40;99.90;;;;;;5034482;28;20435;-75
2023/12/23 05:39:02;;;;;;;1999.90;999.90;;;4.40;99.90;;;;;;5034760;28;20825;-77
2023/12/23 05:41:29;;;;;;;1999.90;999.90;;;4.40;99.90;;;;;;5031773;28;20411;-76
2023/12/23 05:43:55;;;;;;;1999.90;999.90;;;4.30;99.90;;;;;;5031588;28;20415;-75
2023/12/23 05:46:22;;;;;;;1999.90;999.90;;;4.40;99.90;;;;;;5032405;28;20444;-75
2023/12/23 05:48:50;;;;;;;1999.90;999.90;;;4.40;99.90;;;;;;5035296;28;20453;-76
2023/12/23 05:51:17;;;;;;;1999.90;999.90;;;4.40;99.90;;;;;;5032134;28;20437;-74
2023/12/23 05:53:43;;;;;;;1999.90;999.90;;;4.40;99.90;;;;;;5031518;28;20422;-74
2023/12/23 05:56:10;;;;;;;1999.90;999.90;;;4.40;99.90;;;;;;5031953;28;20414;-74
2023/12/23 05:58:37;;;;;;;1999.90;999.90;;;4.50;99.90;;;;;;5031796;28;20471;-73
2023/12/23 06:01:04;;;;;;;1999.90;999.90;;;4.60;99.90;;;;;;5034209;28;20411;-74
2023/12/23 06:03:31;;;;;;;1999.90;999.90;;;4.60;99.90;;;;;;5031169;28;21199;-74
2023/12/23 06:05:59;;;;;;;1999.90;999.90;;;4.60;99.90;;;;;;5031715;28;20473;-72
2023/12/23 06:08:26;;;;;;;1999.90;999.90;;;4.70;99.90;;;;;;5040083;28;20482;-75
2023/12/23 06:10:52;;;;;;;1999.90;999.90;;;4.70;99.90;;;;;;5036404;28;20414;-76
2023/12/23 06:13:19;;;;;;;1999.90;999.90;;;4.80;99.90;;;;;;5036043;28;20461;-75
2023/12/23 06:15:46;;;;;;;1999.90;999.90;;;4.80;99.90;;;;;;5036250;28;20414;-74
2023/12/23 06:18:13;;;;;;;1999.90;999.90;;;4.80;99.90;;;;;;5036048;28;20414;-74
2023/12/23 06:20:39;;;;;;;1999.90;999.90;;;4.80;99.90;;;;;;5041595;28;20424;-73
2023/12/23 06:23:07;;;;;;;1999.90;999.90;;;4.80;99.90;;;;;;5036531;28;20468;-73
2023/12/23 06:25:34;;;;;;;1999.90;999.90;;;4.80;99.90;;;;;;5035743;28;20449;-75
2023/12/23 06:28:00;;;;;;;1999.90;999.90;;;4.90;99.90;;;;;;5036416;28;20977;-74
2023/12/23 06:30:27;;;;;;;1999.90;999.90;;;4.90;99.90;;;;;;5034950;28;20426;-76
2023/12/23 06:32:54;;;;;;;1999.90;999.90;;;4.90;99.90;;;;;;5037103;28;20430;-73
2023/12/23 06:35:21;;;;;;;1999.90;999.90;;;5.00;99.90;;;;;;5039032;28;20421;-74
2023/12/23 06:37:47;;;;;;;1999.90;999.90;;;5.00;99.90;;;;;;5035900;28;20417;-76
2023/12/23 06:40:16;;;;;;;1999.90;999.90;;;5.00;99.90;;;;;;5040465;28;20433;-76
2023/12/23 06:42:42;;;;;;;1999.90;999.90;;;4.90;99.90;;;;;;5042027;28;20419;-74
2023/12/23 06:45:11;;;;;;;1999.90;999.90;;;4.90;99.90;;;;;;5035352;28;20407;-74
2023/12/23 06:47:37;;;;;;;1999.90;999.90;;;4.80;99.90;;;;;;5035396;28;20407;-74
2023/12/23 06:50:04;;;;;;;1999.90;999.90;;;4.90;99.90;;;;;;5034716;28;20445;-75
2023/12/23 06:52:31;;;;;;;1999.90;999.90;;;4.80;99.90;;;;;;5035906;28;20452;-71
2023/12/23 06:54:58;;;;;;;1999.90;999.90;;;4.90;99.90;;;;;;5031310;28;20542;-73
2023/12/23 06:57:26;;;;;;;1999.90;999.90;;;4.80;99.90;;;;;;5035809;28;20856;-72
2023/12/23 06:59:52;;;;;;;1999.90;999.90;;;4.80;99.90;;;;;;5053228;28;20424;-73
2023/12/23 07:02:19;;;;;;;1999.90;999.90;;;4.80;99.90;;;;;;5037536;28;20506;-71
2023/12/23 07:04:46;;;;;;;1999.90;999.90;;;4.80;99.90;;;;;;5045909;28;20432;-74
2023/12/23 07:07:13;;;;;;;1999.90;999.90;;;4.80;99.90;;;;;;5038843;28;20785;-74
2023/12/23 07:09:39;;;;;;;1999.90;999.90;;;4.90;99.90;;;;;;5035194;28;20419;-73
2023/12/23 07:12:08;;;;;;;1999.90;999.90;;;4.80;99.90;;;;;;5034387;28;20504;-74
2023/12/23 07:14:36;;;;;;;1999.90;999.90;;;4.90;99.90;;;;;;5033541;28;20489;-72
2023/12/23 07:17:03;;;;;;;1999.90;999.90;;;4.90;99.90;;;;;;5047124;28;20834;-73
2023/12/23 07:19:30;;;;;;;1999.90;999.90;;;4.80;99.90;;;;;;5034997;28;20970;-73
2023/12/23 07:21:56;;;;;;;1999.90;999.90;;;4.80;99.90;;;;;;5034494;28;20486;-69
2023/12/23 07:24:23;;;;;;;1999.90;999.90;;;4.90;99.90;;;;;;5026765;28;21053;-71
2023/12/23 07:26:50;;;;;;;1999.90;999.90;;;4.90;99.90;;;;;;5037118;28;20429;-69
2023/12/23 07:29:17;;;;;;;1999.90;999.90;;;4.90;99.90;;;;;;5051398;28;20467;-73
2023/12/23 07:31:45;;;;;;;1999.90;999.90;;;4.90;99.90;;;;;;5035082;28;20431;-72
2023/12/23 07:34:11;;;;;;;1999.90;999.90;;;4.90;99.90;;;;;;5035283;28;20418;-70
2023/12/23 07:36:38;;;;;;;1999.90;999.90;;;5.00;99.90;;;;;;5023223;28;20429;-71
2023/12/23 07:39:05;;;;;;;1999.90;999.90;;;5.00;99.90;;;;;;5026968;28;20848;-72
2023/12/23 07:41:32;;;;;;;1999.90;999.90;;;5.00;99.90;;;;;;5047030;28;20970;-73
2023/12/23 07:43:59;;;;;;;1999.90;999.90;;;5.00;99.90;;;;;;5034507;28;20415;-72
2023/12/23 07:46:25;;;;;;;1999.90;999.90;;;4.90;99.90;;;;;;5034151;28;20415;-73
2023/12/23 07:48:53;;;;;;;1999.90;999.90;;;4.90;99.90;;;;;;5034079;28;20539;-73
2023/12/23 07:51:20;;;;;;;1999.90;999.90;;;4.90;99.90;;;;;;5032427;28;20456;-72
2023/12/23 07:53:47;;;;;;;1999.90;999.90;;;4.90;99.90;;;;;;5041271;28;20997;-75
2023/12/23 07:56:14;;;;;;;1999.90;999.90;;;4.80;99.90;;;;;;5032073;28;20469;-74
2023/12/23 07:58:40;;;;;;;1999.90;999.90;;;4.90;99.90;;;;;;5034328;28;20438;-74
2023/12/23 08:01:08;;;;;;;1999.90;999.90;;;5.00;99.90;;;;;;5031661;28;20947;-70
2023/12/23 08:03:35;;;;;;;1999.90;999.90;;;5.00;99.90;;;;;;5037382;28;20502;-73
2023/12/23 08:06:03;;;;;;;1999.90;999.90;;;5.00;99.90;;;;;;5029454;28;20409;-74
2023/12/23 08:08:30;;;;;;;1999.90;999.90;;;5.00;99.90;;;;;;5033472;28;20422;-72
2023/12/23 08:10:57;;;;;;;1999.90;999.90;;;4.90;99.90;;;;;;5032491;28;20415;-73
2023/12/23 08:13:24;;;;;;;1999.90;999.90;;;4.90;99.90;;;;;;5034259;28;20437;-72
2023/12/23 08:15:50;;;;;;;1999.90;999.90;;;4.90;99.90;;;;;;5034454;28;20498;-72
2023/12/23 08:18:17;;;;;;;1999.90;999.90;;;4.90;99.90;;;;;;5033305;28;20473;-72
2023/12/23 08:20:44;;;;;;;1999.90;999.90;;;4.90;99.90;;;;;;5029593;28;20437;-72
2023/12/23 08:23:12;;;;;;;1999.90;999.90;;;5.00;99.90;;;;;;5034789;28;20435;-71
2023/12/23 08:25:39;;;;;;;1999.90;999.90;;;5.00;99.90;;;;;;5034600;28;20443;-72
2023/12/23 08:28:07;;;;;;;1999.90;999.90;;;5.00;99.90;;;;;;5031555;28;20463;-74
2023/12/23 08:30:34;;;;;;;1999.90;999.90;;;4.90;99.90;;;;;;5035093;28;20955;-71
2023/12/23 08:33:01;;;;;;;1999.90;999.90;;;4.90;99.90;;;;;;5036388;28;20434;-72
2023/12/23 08:35:27;;;;;;;1999.90;999.90;;;4.90;99.90;;;;;;5031836;28;20477;-74
2023/12/23 08:37:54;;;;;;;1999.90;999.90;;;4.80;99.90;;;;;;5033043;28;20415;-73
2023/12/23 08:40:22;;;;;;;1999.90;999.90;;;4.80;99.90;;;;;;5034414;28;20434;-72
2023/12/23 08:42:49;;;;;;;1999.90;999.90;;;4.80;99.90;;;;;;5045098;28;20469;-70
2023/12/23 08:45:17;;;;;;;1999.90;999.90;;;4.80;99.90;;;;;;5041433;28;20471;-72
2023/12/23 08:47:44;;;;;;;1999.90;999.90;;;4.70;99.90;;;;;;5041114;28;20813;-73
2023/12/23 08:50:11;;;;;;;1999.90;999.90;;;4.60;99.90;;;;;;5039119;28;20946;-75
2023/12/23 08:52:47;;;;;;;1999.90;999.90;;;4.70;99.90;;;;;;5045117;28;20431;-73
2023/12/23 08:55:14;;;;;;;1999.90;999.90;;;4.70;99.90;;;;;;5035406;28;20419;-73
2023/12/23 08:57:42;;;;;;;1999.90;999.90;;;4.70;99.90;;;;;;5029555;28;20417;-74
2023/12/23 09:00:10;;;;;;;1999.90;999.90;;;4.70;99.90;;;;;;5032268;28;20487;-74
2023/12/23 09:02:37;;;;;;;1999.90;999.90;;;4.70;99.90;;;;;;5038996;28;20407;-74
2023/12/23 09:05:04;;;;;;;1999.90;999.90;;;4.60;99.90;;;;;;5032559;28;20415;-73
2023/12/23 09:07:31;;;;;;;1999.90;999.90;;;4.60;99.90;;;;;;5032281;28;20426;-72
2023/12/23 09:09:58;;;;;;;1999.90;999.90;;;4.60;99.90;;;;;;5034296;28;20437;-73
2023/12/23 09:12:24;;;;;;;1999.90;999.90;;;4.60;99.90;;;;;;5039537;28;20430;-73
2023/12/23 09:14:52;;;;;;;1999.90;999.90;;;4.60;99.90;;;;;;5028247;28;20430;-70
2023/12/23 09:17:19;;;;;;;1999.90;999.90;;;4.50;99.90;;;;;;5027568;28;20418;-73
2023/12/23 09:19:46;;;;;;;1999.90;999.90;;;4.50;99.90;;;;;;5031458;28;20951;-74
2023/12/23 09:22:13;;;;;;;1999.90;999.90;;;4.50;99.90;;;;;;5032485;28;20920;-74
2023/12/23 09:24:41;;;;;;;1999.90;999.90;;;4.50;99.90;;;;;;5036363;28;20438;-71
2023/12/23 09:27:08;;;;;;;1999.90;999.90;;;4.60;99.90;;;;;;5030205;28;20473;-68
2023/12/23 09:29:34;;;;;;;1999.90;999.90;;;4.60;99.90;;;;;;5031316;28;21823;-73
2023/12/23 09:32:19;;;;;;;1999.90;999.90;;;4.60;99.90;;;;;;5034343;28;20949;-72
2023/12/23 09:34:46;;;;;;;1999.90;999.90;;;4.70;99.90;;;;;;5023903;28;20784;-70
2023/12/23 09:37:13;;;;;;;1999.90;999.90;;;4.70;99.90;;;;;;5034944;28;20528;-72
2023/12/23 09:39:40;;;;;;;1999.90;999.90;;;4.70;99.90;;;;;;5032035;28;20421;-73
2023/12/23 09:42:07;;;;;;;1999.90;999.90;;;4.70;99.90;;;;;;5025808;28;20427;-72
2023/12/23 09:44:34;;;;;;;1999.90;999.90;;;4.70;99.90;;;;;;5034563;28;20431;-72
2023/12/23 09:47:02;;;;;;;1999.90;999.90;;;4.70;99.90;;;;;;5035302;28;20415;-71
2023/12/23 09:49:30;;;;;;;1999.90;999.90;;;4.70;99.90;;;;;;5033533;28;20905;-73
2023/12/23 09:51:57;;;;;;;1999.90;999.90;;;4.70;99.90;;;;;;5027993;28;20874;-68
2023/12/23 09:54:26;;;;;;;1999.90;999.90;;;4.70;99.90;;;;;;5041669;28;20425;-74
2023/12/23 09:56:54;;;;;;;1999.90;999.90;;;4.80;99.90;;;;;;5031644;28;20419;-71
2023/12/23 09:59:20;;;;;;;1999.90;999.90;;;4.80;99.90;;;;;;5023876;28;20458;-72
2023/12/23 10:01:47;;;;;;;1999.90;999.90;;;4.70;99.90;;;;;;5029796;28;20500;-72
2023/12/23 10:04:14;;;;;;;1999.90;999.90;;;4.70;99.90;;;;;;5027503;28;20431;-74
2023/12/23 10:06:42;;;;;;;1999.90;999.90;;;4.70;99.90;;;;;;5033621;28;20414;-72
2023/12/23 10:09:09;;;;;;;1999.90;999.90;;;4.60;99.90;;;;;;5033150;28;20433;-73
2023/12/23 10:11:36;;;;;;;1999.90;999.90;;;4.60;99.90;;;;;;5033512;28;20501;-71
2023/12/23 10:14:02;;;;;;;1999.90;999.90;;;4.60;99.90;;;;;;5039888;28;20496;-74
2023/12/23 10:16:29;;;;;;;1999.90;999.90;;;4.60;99.90;;;;;;5040201;28;20949;-74
2023/12/23 10:18:56;;;;;;;1999.90;999.90;;;4.50;99.90;;;;;;5030681;28;20405;-71
2023/12/23 10:21:23;;;;;;;1999.90;999.90;;;4.50;99.90;;;;;;5033995;28;20436;-73
2023/12/23 10:23:51;;;;;;;1999.90;999.90;;;4.30;99.90;;;;;;5038682;28;20411;-71
2023/12/23 10:26:18;;;;;;;1999.90;999.90;;;4.30;99.90;;;;;;5039412;28;20471;-72
2023/12/23 10:28:51;;;;;;;1999.90;999.90;;;4.40;99.90;;;;;;5035311;28;20473;-74
2023/12/23 10:31:21;;;;;;;1999.90;999.90;;;4.40;99.90;;;;;;5030474;28;20975;-73
2023/12/23 10:33:55;;;;;;;1999.90;999.90;;;4.30;99.90;;;;;;5030247;28;20957;-75
2023/12/23 10:36:24;;;;;;;1999.90;999.90;;;4.20;99.90;;;;;;5034588;28;20435;-74
2023/12/23 10:38:57;;;;;;;1999.90;999.90;;;4.20;99.90;;;;;;5035276;28;20461;-69
2023/12/23 10:41:32;;;;;;;1999.90;999.90;;;4.20;99.90;;;;;;5034823;28;20487;-74
2023/12/23 10:44:00;;;;;;;1999.90;999.90;;;4.20;99.90;;;;;;5035071;28;20407;-73
2023/12/23 10:46:27;;;;;;;1999.90;999.90;;;4.20;99.90;;;;;;5033945;28;20413;-72
2023/12/23 10:48:55;;;;;;;1999.90;999.90;;;4.10;99.90;;;;;;5025237;28;20446;-72
2023/12/23 10:51:22;;;;;;;1999.90;999.90;;;4.10;99.90;;;;;;5025835;28;20442;-71
2023/12/23 10:53:52;;;;;;;1999.90;999.90;;;4.10;99.90;;;;;;5027891;28;20476;-72
2023/12/23 10:56:22;;;;;;;1999.90;999.90;;;4.20;99.90;;;;;;5027228;28;20422;-71
2023/12/23 10:58:49;;;;;;;1999.90;999.90;;;4.10;99.90;;;;;;5030922;28;20415;-72
2023/12/23 11:01:20;;;;;;;1999.90;999.90;;;4.10;99.90;;;;;;5026086;28;20885;-72
2023/12/23 11:03:51;;;;;;;1999.90;999.90;;;4.20;99.90;;;;;;5030726;28;20860;-71
2023/12/23 11:06:19;;;;;;;1999.90;999.90;;;4.20;99.90;;;;;;5029805;28;20434;-71
2023/12/23 11:08:47;;;;;;;1999.90;999.90;;;4.20;99.90;;;;;;5030766;28;20423;-72
2023/12/23 11:11:15;;;;;;;1999.90;999.90;;;4.20;99.90;;;;;;5028261;28;20434;-71
2023/12/23 11:13:43;;;;;;;1999.90;999.90;;;4.10;99.90;;;;;;5024094;28;20426;-73
2023/12/23 11:16:11;;;;;;;1999.90;999.90;;;4.00;99.90;;;;;;5029024;28;20790;-72
2023/12/23 11:18:40;;;;;;;1999.90;999.90;;;4.00;99.90;;;;;;5031257;28;20423;-72
2023/12/23 11:21:15;;;;;;;1999.90;999.90;;;4.10;99.90;;;;;;5031541;28;20419;-69
2023/12/23 11:23:41;;;;;;;1999.90;999.90;;;4.10;99.90;;;;;;5027473;28;20411;-72
2023/12/23 11:26:41;;;;;;;1999.90;999.90;;;4.10;99.90;;;;;;5030130;28;20441;-71
2023/12/23 11:29:12;;;;;;;1999.90;999.90;;;3.90;99.90;;;;;;5030847;28;20434;-72
2023/12/23 11:31:39;;;;;;;1999.90;999.90;;;4.00;99.90;;;;;;5031080;28;20821;-72
2023/12/23 11:34:17;;;;;;;1999.90;999.90;;;4.00;99.90;;;;;;5027849;28;20513;-75
2023/12/23 11:36:44;;;;;;;1999.90;999.90;;;4.00;99.90;;;;;;5023355;28;20875;-73
2023/12/23 11:39:12;;;;;;;1999.90;999.90;;;3.90;99.90;;;;;;5028115;28;20445;-74
2023/12/23 11:41:41;;;;;;;1999.90;999.90;;;3.90;99.90;;;;;;5030874;28;20427;-75
2023/12/23 11:44:10;;;;;;;1999.90;999.90;;;3.90;99.90;;;;;;5031150;28;20905;-75
2023/12/23 11:46:39;;;;;;;1999.90;999.90;;;3.90;99.90;;;;;;5030682;28;20450;-74
2023/12/23 11:49:08;;;;;;;1999.90;999.90;;;3.90;99.90;;;;;;5031186;28;20442;-69
2023/12/23 11:51:35;;;;;;;1999.90;999.90;;;3.80;99.90;;;;;;5028110;28;20852;-71
2023/12/23 11:54:02;;;;;;;1999.90;999.90;;;3.90;99.90;;;;;;5029661;28;20496;-70
2023/12/23 11:56:29;;;;;;;1999.90;999.90;;;3.90;99.90;;;;;;5028366;28;20932;-74
2023/12/23 11:58:58;;;;;;;1999.90;999.90;;;3.90;99.90;;;;;;5030766;28;20419;-76
2023/12/23 12:01:26;;;;;;;1999.90;999.90;;;3.90;99.90;;;;;;5023860;28;20540;-74
2023/12/23 12:03:53;;;;;;;1999.90;999.90;;;3.90;99.90;;;;;;5024051;28;20429;-74
2023/12/23 12:06:21;;;;;;;1999.90;999.90;;;3.90;99.90;;;;;;5027172;28;20439;-75
2023/12/23 12:08:48;;;;;;;1999.90;999.90;;;3.90;99.90;;;;;;5027376;28;20436;-72